sensor_id;sensor_type;location;lat;lon;timestamp;temperature;humidity
77523;SHT31;66637;-29.628;-49.938;2023-05-23T00:01:20;19.78;77.10
77523;SHT31;66637;-29.628;-49.938;2023-05-23T00:03:54;19.80;76.68
77523;SHT31;66637;-29.628;-49.938;2023-05-23T00:06:26;19.83;76.32
77523;SHT31;66637;-29.628;-49.938;2023-05-23T00:09:00;19.83;76.30
77523;SHT31;66637;-29.628;-49.938;2023-05-23T00:11:33;19.80;76.11
77523;SHT31;66637;-29.628;-49.938;2023-05-23T00:14:06;19.77;76.29
77523;SHT31;66637;-29.628;-49.938;2023-05-23T00:16:41;19.85;75.94
77523;SHT31;66637;-29.628;-49.938;2023-05-23T00:19:17;19.91;75.61
77523;SHT31;66637;-29.628;-49.938;2023-05-23T00:21:48;20.00;75.44
77523;SHT31;66637;-29.628;-49.938;2023-05-23T00:24:20;19.97;75.69
77523;SHT31;66637;-29.628;-49.938;2023-05-23T00:26:55;19.95;75.27
77523;SHT31;66637;-29.628;-49.938;2023-05-23T00:29:28;19.95;75.07
77523;SHT31;66637;-29.628;-49.938;2023-05-23T00:31:59;19.98;75.00
77523;SHT31;66637;-29.628;-49.938;2023-05-23T00:34:31;19.93;75.00
77523;SHT31;66637;-29.628;-49.938;2023-05-23T00:37:05;19.90;75.21
77523;SHT31;66637;-29.628;-49.938;2023-05-23T00:39:36;19.94;75.51
77523;SHT31;66637;-29.628;-49.938;2023-05-23T00:42:07;19.93;75.39
77523;SHT31;66637;-29.628;-49.938;2023-05-23T00:44:40;19.90;75.86
77523;SHT31;66637;-29.628;-49.938;2023-05-23T00:51:12;19.84;76.54
77523;SHT31;66637;-29.628;-49.938;2023-05-23T00:53:48;19.83;76.55
77523;SHT31;66637;-29.628;-49.938;2023-05-23T00:56:25;19.75;76.76
77523;SHT31;66637;-29.628;-49.938;2023-05-23T00:59:01;19.75;76.85
77523;SHT31;66637;-29.628;-49.938;2023-05-23T01:01:33;19.71;77.13
77523;SHT31;66637;-29.628;-49.938;2023-05-23T01:04:08;19.71;77.03
77523;SHT31;66637;-29.628;-49.938;2023-05-23T01:06:46;19.74;76.78
77523;SHT31;66637;-29.628;-49.938;2023-05-23T01:09:23;19.77;76.58
77523;SHT31;66637;-29.628;-49.938;2023-05-23T01:12:02;19.77;76.60
77523;SHT31;66637;-29.628;-49.938;2023-05-23T01:20:31;19.77;76.25
77523;SHT31;66637;-29.628;-49.938;2023-05-23T01:29:42;19.70;76.30
77523;SHT31;66637;-29.628;-49.938;2023-05-23T01:32:15;19.53;76.45
77523;SHT31;66637;-29.628;-49.938;2023-05-23T01:34:48;19.47;76.50
77523;SHT31;66637;-29.628;-49.938;2023-05-23T01:37:22;19.49;76.70
77523;SHT31;66637;-29.628;-49.938;2023-05-23T01:39:52;19.47;76.75
77523;SHT31;66637;-29.628;-49.938;2023-05-23T01:42:22;19.37;77.04
77523;SHT31;66637;-29.628;-49.938;2023-05-23T01:44:54;19.30;77.06
77523;SHT31;66637;-29.628;-49.938;2023-05-23T01:47:31;19.30;77.11
77523;SHT31;66637;-29.628;-49.938;2023-05-23T01:50:04;19.19;77.55
77523;SHT31;66637;-29.628;-49.938;2023-05-23T01:52:36;19.09;77.41
77523;SHT31;66637;-29.628;-49.938;2023-05-23T01:55:09;19.08;77.75
77523;SHT31;66637;-29.628;-49.938;2023-05-23T01:57:43;18.98;77.66
77523;SHT31;66637;-29.628;-49.938;2023-05-23T02:00:24;18.96;77.81
77523;SHT31;66637;-29.628;-49.938;2023-05-23T02:02:58;18.98;78.15
77523;SHT31;66637;-29.628;-49.938;2023-05-23T02:05:29;19.00;78.07
77523;SHT31;66637;-29.628;-49.938;2023-05-23T02:08:01;18.96;77.85
77523;SHT31;66637;-29.628;-49.938;2023-05-23T02:10:33;18.92;78.51
77523;SHT31;66637;-29.628;-49.938;2023-05-23T02:13:03;18.94;78.42
77523;SHT31;66637;-29.628;-49.938;2023-05-23T02:15:35;18.89;78.31
77523;SHT31;66637;-29.628;-49.938;2023-05-23T02:18:08;18.87;78.68
77523;SHT31;66637;-29.628;-49.938;2023-05-23T02:20:42;18.85;78.76
77523;SHT31;66637;-29.628;-49.938;2023-05-23T02:23:13;18.78;79.05
77523;SHT31;66637;-29.628;-49.938;2023-05-23T02:25:45;18.73;79.06
77523;SHT31;66637;-29.628;-49.938;2023-05-23T02:28:17;18.62;79.20
77523;SHT31;66637;-29.628;-49.938;2023-05-23T02:30:49;18.57;79.49
77523;SHT31;66637;-29.628;-49.938;2023-05-23T02:33:24;18.55;79.67
77523;SHT31;66637;-29.628;-49.938;2023-05-23T02:35:58;18.49;79.58
77523;SHT31;66637;-29.628;-49.938;2023-05-23T02:38:29;18.51;79.59
77523;SHT31;66637;-29.628;-49.938;2023-05-23T02:41:01;18.55;79.52
77523;SHT31;66637;-29.628;-49.938;2023-05-23T02:43:34;18.57;79.58
77523;SHT31;66637;-29.628;-49.938;2023-05-23T02:46:05;18.55;79.70
77523;SHT31;66637;-29.628;-49.938;2023-05-23T02:48:36;18.57;79.71
77523;SHT31;66637;-29.628;-49.938;2023-05-23T02:51:07;18.55;79.93
77523;SHT31;66637;-29.628;-49.938;2023-05-23T02:53:38;18.62;79.72
77523;SHT31;66637;-29.628;-49.938;2023-05-23T02:56:10;18.59;79.47
77523;SHT31;66637;-29.628;-49.938;2023-05-23T02:58:43;18.59;79.73
77523;SHT31;66637;-29.628;-49.938;2023-05-23T03:01:16;18.61;79.78
77523;SHT31;66637;-29.628;-49.938;2023-05-23T03:03:48;18.65;80.15
77523;SHT31;66637;-29.628;-49.938;2023-05-23T03:06:18;18.67;80.14
77523;SHT31;66637;-29.628;-49.938;2023-05-23T03:08:52;18.57;80.28
77523;SHT31;66637;-29.628;-49.938;2023-05-23T03:11:22;18.55;80.81
77523;SHT31;66637;-29.628;-49.938;2023-05-23T03:13:53;18.58;81.22
77523;SHT31;66637;-29.628;-49.938;2023-05-23T03:16:24;18.55;81.34
77523;SHT31;66637;-29.628;-49.938;2023-05-23T03:18:55;18.54;81.06
77523;SHT31;66637;-29.628;-49.938;2023-05-23T03:21:25;18.64;81.33
77523;SHT31;66637;-29.628;-49.938;2023-05-23T03:23:57;18.68;80.87
77523;SHT31;66637;-29.628;-49.938;2023-05-23T03:26:30;18.71;80.88
77523;SHT31;66637;-29.628;-49.938;2023-05-23T03:29:00;18.71;80.50
77523;SHT31;66637;-29.628;-49.938;2023-05-23T03:31:32;18.79;80.43
77523;SHT31;66637;-29.628;-49.938;2023-05-23T03:34:04;18.78;80.46
77523;SHT31;66637;-29.628;-49.938;2023-05-23T03:36:36;18.82;80.32
77523;SHT31;66637;-29.628;-49.938;2023-05-23T03:39:08;18.91;80.63
77523;SHT31;66637;-29.628;-49.938;2023-05-23T03:41:41;18.89;80.75
77523;SHT31;66637;-29.628;-49.938;2023-05-23T03:44:13;18.92;81.54
77523;SHT31;66637;-29.628;-49.938;2023-05-23T03:46:45;18.99;82.29
77523;SHT31;66637;-29.628;-49.938;2023-05-23T03:49:17;19.10;82.53
77523;SHT31;66637;-29.628;-49.938;2023-05-23T03:51:47;19.24;83.10
77523;SHT31;66637;-29.628;-49.938;2023-05-23T03:54:17;19.30;82.60
77523;SHT31;66637;-29.628;-49.938;2023-05-23T03:56:48;19.34;82.24
77523;SHT31;66637;-29.628;-49.938;2023-05-23T03:59:19;19.27;82.08
77523;SHT31;66637;-29.628;-49.938;2023-05-23T04:01:49;19.26;81.72
77523;SHT31;66637;-29.628;-49.938;2023-05-23T04:04:20;19.27;81.29
77523;SHT31;66637;-29.628;-49.938;2023-05-23T04:06:50;19.22;80.99
77523;SHT31;66637;-29.628;-49.938;2023-05-23T04:09:22;19.22;80.51
77523;SHT31;66637;-29.628;-49.938;2023-05-23T04:11:53;19.16;80.12
77523;SHT31;66637;-29.628;-49.938;2023-05-23T04:14:26;19.10;79.65
77523;SHT31;66637;-29.628;-49.938;2023-05-23T04:16:58;19.02;79.64
77523;SHT31;66637;-29.628;-49.938;2023-05-23T04:19:29;18.89;79.45
77523;SHT31;66637;-29.628;-49.938;2023-05-23T04:22:00;18.88;79.39
77523;SHT31;66637;-29.628;-49.938;2023-05-23T04:24:32;18.81;79.16
77523;SHT31;66637;-29.628;-49.938;2023-05-23T04:27:03;18.72;78.95
77523;SHT31;66637;-29.628;-49.938;2023-05-23T04:29:36;18.64;78.95
77523;SHT31;66637;-29.628;-49.938;2023-05-23T04:32:07;18.59;78.94
77523;SHT31;66637;-29.628;-49.938;2023-05-23T04:34:38;18.58;78.82
77523;SHT31;66637;-29.628;-49.938;2023-05-23T04:37:10;18.52;78.84
77523;SHT31;66637;-29.628;-49.938;2023-05-23T04:39:42;18.49;78.96
77523;SHT31;66637;-29.628;-49.938;2023-05-23T04:42:34;18.41;78.99
77523;SHT31;66637;-29.628;-49.938;2023-05-23T04:45:22;18.40;79.01
77523;SHT31;66637;-29.628;-49.938;2023-05-23T04:47:58;18.36;79.04
77523;SHT31;66637;-29.628;-49.938;2023-05-23T04:50:41;18.31;78.96
77523;SHT31;66637;-29.628;-49.938;2023-05-23T04:53:13;18.30;78.77
77523;SHT31;66637;-29.628;-49.938;2023-05-23T04:55:45;18.34;78.68
77523;SHT31;66637;-29.628;-49.938;2023-05-23T04:58:31;18.28;78.41
77523;SHT31;66637;-29.628;-49.938;2023-05-23T05:01:05;18.27;78.57
77523;SHT31;66637;-29.628;-49.938;2023-05-23T05:03:36;18.16;78.88
77523;SHT31;66637;-29.628;-49.938;2023-05-23T05:06:07;18.13;79.22
77523;SHT31;66637;-29.628;-49.938;2023-05-23T05:08:38;18.06;79.11
77523;SHT31;66637;-29.628;-49.938;2023-05-23T05:11:11;18.04;79.11
77523;SHT31;66637;-29.628;-49.938;2023-05-23T05:13:42;18.06;78.99
77523;SHT31;66637;-29.628;-49.938;2023-05-23T05:16:13;18.01;78.92
77523;SHT31;66637;-29.628;-49.938;2023-05-23T05:18:45;17.96;78.66
77523;SHT31;66637;-29.628;-49.938;2023-05-23T05:21:16;17.89;78.79
77523;SHT31;66637;-29.628;-49.938;2023-05-23T05:23:50;17.87;79.02
77523;SHT31;66637;-29.628;-49.938;2023-05-23T05:26:26;17.82;79.17
77523;SHT31;66637;-29.628;-49.938;2023-05-23T05:28:58;17.86;79.22
77523;SHT31;66637;-29.628;-49.938;2023-05-23T05:31:30;17.76;79.40
77523;SHT31;66637;-29.628;-49.938;2023-05-23T05:34:04;17.75;79.47
77523;SHT31;66637;-29.628;-49.938;2023-05-23T05:36:39;17.73;79.26
77523;SHT31;66637;-29.628;-49.938;2023-05-23T05:39:17;17.67;79.30
77523;SHT31;66637;-29.628;-49.938;2023-05-23T05:41:49;17.72;79.14
77523;SHT31;66637;-29.628;-49.938;2023-05-23T05:44:21;17.72;79.21
77523;SHT31;66637;-29.628;-49.938;2023-05-23T05:47:07;17.75;78.89
77523;SHT31;66637;-29.628;-49.938;2023-05-23T05:49:39;17.72;78.71
77523;SHT31;66637;-29.628;-49.938;2023-05-23T05:52:09;17.73;78.63
77523;SHT31;66637;-29.628;-49.938;2023-05-23T05:54:40;17.69;78.55
77523;SHT31;66637;-29.628;-49.938;2023-05-23T05:57:20;17.67;78.63
77523;SHT31;66637;-29.628;-49.938;2023-05-23T05:59:51;17.63;78.85
77523;SHT31;66637;-29.628;-49.938;2023-05-23T06:02:21;17.62;78.99
77523;SHT31;66637;-29.628;-49.938;2023-05-23T06:04:54;17.65;78.92
77523;SHT31;66637;-29.628;-49.938;2023-05-23T06:07:24;17.67;79.13
77523;SHT31;66637;-29.628;-49.938;2023-05-23T06:09:55;17.65;79.12
77523;SHT31;66637;-29.628;-49.938;2023-05-23T06:12:26;17.69;79.22
77523;SHT31;66637;-29.628;-49.938;2023-05-23T06:14:57;17.75;79.36
77523;SHT31;66637;-29.628;-49.938;2023-05-23T06:17:29;17.70;79.33
77523;SHT31;66637;-29.628;-49.938;2023-05-23T06:19:59;17.63;79.20
77523;SHT31;66637;-29.628;-49.938;2023-05-23T06:22:31;17.66;79.50
77523;SHT31;66637;-29.628;-49.938;2023-05-23T06:25:03;17.63;79.40
77523;SHT31;66637;-29.628;-49.938;2023-05-23T06:27:34;17.62;79.66
77523;SHT31;66637;-29.628;-49.938;2023-05-23T06:30:05;17.63;79.46
77523;SHT31;66637;-29.628;-49.938;2023-05-23T06:32:36;17.59;79.50
77523;SHT31;66637;-29.628;-49.938;2023-05-23T06:35:08;17.61;79.65
77523;SHT31;66637;-29.628;-49.938;2023-05-23T06:37:39;17.59;79.39
77523;SHT31;66637;-29.628;-49.938;2023-05-23T06:40:14;17.61;79.54
77523;SHT31;66637;-29.628;-49.938;2023-05-23T06:42:46;17.63;79.39
77523;SHT31;66637;-29.628;-49.938;2023-05-23T06:45:25;17.63;79.31
77523;SHT31;66637;-29.628;-49.938;2023-05-23T06:47:57;17.63;79.73
77523;SHT31;66637;-29.628;-49.938;2023-05-23T06:50:32;17.61;79.76
77523;SHT31;66637;-29.628;-49.938;2023-05-23T06:53:03;17.56;79.89
77523;SHT31;66637;-29.628;-49.938;2023-05-23T06:55:34;17.55;80.03
77523;SHT31;66637;-29.628;-49.938;2023-05-23T06:58:10;17.69;79.66
77523;SHT31;66637;-29.628;-49.938;2023-05-23T07:00:41;17.57;79.80
77523;SHT31;66637;-29.628;-49.938;2023-05-23T07:03:22;17.59;80.07
77523;SHT31;66637;-29.628;-49.938;2023-05-23T07:05:55;17.56;80.51
77523;SHT31;66637;-29.628;-49.938;2023-05-23T07:08:26;17.53;80.18
77523;SHT31;66637;-29.628;-49.938;2023-05-23T07:11:00;17.50;80.19
77523;SHT31;66637;-29.628;-49.938;2023-05-23T07:13:46;17.49;80.62
77523;SHT31;66637;-29.628;-49.938;2023-05-23T07:16:27;17.61;80.44
77523;SHT31;66637;-29.628;-49.938;2023-05-23T07:19:06;17.47;80.71
77523;SHT31;66637;-29.628;-49.938;2023-05-23T07:21:47;17.40;80.95
77523;SHT31;66637;-29.628;-49.938;2023-05-23T07:24:19;17.36;81.43
77523;SHT31;66637;-29.628;-49.938;2023-05-23T07:26:56;17.33;81.31
77523;SHT31;66637;-29.628;-49.938;2023-05-23T07:29:27;17.39;81.51
77523;SHT31;66637;-29.628;-49.938;2023-05-23T07:31:58;17.33;81.66
77523;SHT31;66637;-29.628;-49.938;2023-05-23T07:34:30;17.36;81.75
77523;SHT31;66637;-29.628;-49.938;2023-05-23T07:37:02;17.35;81.74
77523;SHT31;66637;-29.628;-49.938;2023-05-23T07:39:40;17.38;82.07
77523;SHT31;66637;-29.628;-49.938;2023-05-23T07:42:12;17.36;82.04
77523;SHT31;66637;-29.628;-49.938;2023-05-23T07:44:43;17.36;81.91
77523;SHT31;66637;-29.628;-49.938;2023-05-23T07:47:14;17.35;81.55
77523;SHT31;66637;-29.628;-49.938;2023-05-23T07:49:45;17.40;81.89
77523;SHT31;66637;-29.628;-49.938;2023-05-23T07:52:17;17.35;81.20
77523;SHT31;66637;-29.628;-49.938;2023-05-23T07:54:47;17.33;81.01
77523;SHT31;66637;-29.628;-49.938;2023-05-23T07:57:19;17.38;81.43
77523;SHT31;66637;-29.628;-49.938;2023-05-23T07:59:54;17.35;80.99
77523;SHT31;66637;-29.628;-49.938;2023-05-23T08:02:27;17.39;81.38
77523;SHT31;66637;-29.628;-49.938;2023-05-23T08:04:59;17.36;81.44
77523;SHT31;66637;-29.628;-49.938;2023-05-23T08:07:31;17.35;81.48
77523;SHT31;66637;-29.628;-49.938;2023-05-23T08:10:04;17.32;81.63
77523;SHT31;66637;-29.628;-49.938;2023-05-23T08:12:38;17.29;81.67
77523;SHT31;66637;-29.628;-49.938;2023-05-23T08:15:14;17.29;81.88
77523;SHT31;66637;-29.628;-49.938;2023-05-23T08:17:51;17.31;81.37
77523;SHT31;66637;-29.628;-49.938;2023-05-23T08:20:27;17.23;81.04
77523;SHT31;66637;-29.628;-49.938;2023-05-23T08:23:01;17.16;81.09
77523;SHT31;66637;-29.628;-49.938;2023-05-23T08:25:33;17.18;81.61
77523;SHT31;66637;-29.628;-49.938;2023-05-23T08:28:05;17.16;81.46
77523;SHT31;66637;-29.628;-49.938;2023-05-23T08:30:42;17.15;81.46
77523;SHT31;66637;-29.628;-49.938;2023-05-23T08:33:13;17.15;81.73
77523;SHT31;66637;-29.628;-49.938;2023-05-23T08:35:47;17.16;81.84
77523;SHT31;66637;-29.628;-49.938;2023-05-23T08:38:19;17.14;81.99
77523;SHT31;66637;-29.628;-49.938;2023-05-23T08:41:01;17.04;81.91
77523;SHT31;66637;-29.628;-49.938;2023-05-23T08:43:35;16.89;82.03
77523;SHT31;66637;-29.628;-49.938;2023-05-23T08:46:10;16.89;82.30
77523;SHT31;66637;-29.628;-49.938;2023-05-23T08:48:44;17.00;82.42
77523;SHT31;66637;-29.628;-49.938;2023-05-23T08:51:22;17.00;82.57
77523;SHT31;66637;-29.628;-49.938;2023-05-23T08:53:58;16.87;82.48
77523;SHT31;66637;-29.628;-49.938;2023-05-23T08:56:30;16.82;82.91
77523;SHT31;66637;-29.628;-49.938;2023-05-23T08:59:03;16.84;82.51
77523;SHT31;66637;-29.628;-49.938;2023-05-23T09:01:35;16.72;81.94
77523;SHT31;66637;-29.628;-49.938;2023-05-23T09:04:11;16.67;81.97
77523;SHT31;66637;-29.628;-49.938;2023-05-23T09:07:03;16.67;81.97
77523;SHT31;66637;-29.628;-49.938;2023-05-23T09:09:35;16.75;82.74
77523;SHT31;66637;-29.628;-49.938;2023-05-23T09:12:08;16.80;82.52
77523;SHT31;66637;-29.628;-49.938;2023-05-23T09:14:41;16.85;82.78
77523;SHT31;66637;-29.628;-49.938;2023-05-23T09:17:18;16.80;82.28
77523;SHT31;66637;-29.628;-49.938;2023-05-23T09:19:48;16.77;82.34
77523;SHT31;66637;-29.628;-49.938;2023-05-23T09:22:31;16.68;81.71
77523;SHT31;66637;-29.628;-49.938;2023-05-23T09:25:06;16.84;81.83
77523;SHT31;66637;-29.628;-49.938;2023-05-23T09:27:39;16.85;81.90
77523;SHT31;66637;-29.628;-49.938;2023-05-23T09:30:13;16.84;82.20
77523;SHT31;66637;-29.628;-49.938;2023-05-23T09:32:58;16.88;82.34
77523;SHT31;66637;-29.628;-49.938;2023-05-23T09:35:34;16.87;81.81
77523;SHT31;66637;-29.628;-49.938;2023-05-23T09:38:07;16.80;81.65
77523;SHT31;66637;-29.628;-49.938;2023-05-23T09:40:37;16.87;81.90
77523;SHT31;66637;-29.628;-49.938;2023-05-23T09:43:49;16.82;81.55
77523;SHT31;66637;-29.628;-49.938;2023-05-23T09:46:26;16.80;81.89
77523;SHT31;66637;-29.628;-49.938;2023-05-23T09:48:58;16.81;82.01
77523;SHT31;66637;-29.628;-49.938;2023-05-23T09:51:29;16.74;81.43
77523;SHT31;66637;-29.628;-49.938;2023-05-23T09:53:59;16.64;81.43
77523;SHT31;66637;-29.628;-49.938;2023-05-23T09:56:31;16.64;81.80
77523;SHT31;66637;-29.628;-49.938;2023-05-23T09:59:04;16.68;82.17
77523;SHT31;66637;-29.628;-49.938;2023-05-23T10:01:40;16.70;82.08
77523;SHT31;66637;-29.628;-49.938;2023-05-23T10:04:13;16.80;82.18
77523;SHT31;66637;-29.628;-49.938;2023-05-23T10:06:55;16.91;82.16
77523;SHT31;66637;-29.628;-49.938;2023-05-23T10:09:32;16.98;81.80
77523;SHT31;66637;-29.628;-49.938;2023-05-23T10:14:44;16.95;81.67
77523;SHT31;66637;-29.628;-49.938;2023-05-23T10:17:18;16.94;81.86
77523;SHT31;66637;-29.628;-49.938;2023-05-23T10:20:15;17.05;81.55
77523;SHT31;66637;-29.628;-49.938;2023-05-23T10:22:47;17.08;81.42
77523;SHT31;66637;-29.628;-49.938;2023-05-23T10:25:20;17.07;81.32
77523;SHT31;66637;-29.628;-49.938;2023-05-23T10:27:57;17.10;81.30
77523;SHT31;66637;-29.628;-49.938;2023-05-23T10:30:33;17.15;81.14
77523;SHT31;66637;-29.628;-49.938;2023-05-23T10:33:06;17.22;80.76
77523;SHT31;66637;-29.628;-49.938;2023-05-23T10:42:07;17.35;80.55
77523;SHT31;66637;-29.628;-49.938;2023-05-23T10:44:40;18.72;76.83
77523;SHT31;66637;-29.628;-49.938;2023-05-23T10:47:11;18.99;75.58
77523;SHT31;66637;-29.628;-49.938;2023-05-23T10:49:50;18.49;77.14
77523;SHT31;66637;-29.628;-49.938;2023-05-23T10:52:23;18.21;78.11
77523;SHT31;66637;-29.628;-49.938;2023-05-23T10:54:57;18.72;76.46
77523;SHT31;66637;-29.628;-49.938;2023-05-23T10:57:28;18.36;77.81
77523;SHT31;66637;-29.628;-49.938;2023-05-23T11:00:01;18.33;78.12
77523;SHT31;66637;-29.628;-49.938;2023-05-23T11:02:34;18.65;77.32
77523;SHT31;66637;-29.628;-49.938;2023-05-23T11:05:21;18.68;78.05
77523;SHT31;66637;-29.628;-49.938;2023-05-23T11:08:14;18.79;78.11
77523;SHT31;66637;-29.628;-49.938;2023-05-23T11:10:59;18.89;78.28
77523;SHT31;66637;-29.628;-49.938;2023-05-23T11:16:30;22.13;69.22
77523;SHT31;66637;-29.628;-49.938;2023-05-23T11:19:21;23.33;66.04
77523;SHT31;66637;-29.628;-49.938;2023-05-23T11:24:47;21.61;71.14
77523;SHT31;66637;-29.628;-49.938;2023-05-23T11:27:27;21.40;71.00
77523;SHT31;66637;-29.628;-49.938;2023-05-23T11:30:10;21.50;71.64
77523;SHT31;66637;-29.628;-49.938;2023-05-23T11:32:53;21.55;70.58
77523;SHT31;66637;-29.628;-49.938;2023-05-23T11:35:25;21.71;69.00
77523;SHT31;66637;-29.628;-49.938;2023-05-23T11:37:56;21.92;68.37
77523;SHT31;66637;-29.628;-49.938;2023-05-23T11:40:29;22.09;68.65
77523;SHT31;66637;-29.628;-49.938;2023-05-23T11:43:07;22.32;67.55
77523;SHT31;66637;-29.628;-49.938;2023-05-23T11:45:40;22.51;66.74
77523;SHT31;66637;-29.628;-49.938;2023-05-23T11:48:15;22.72;66.32
77523;SHT31;66637;-29.628;-49.938;2023-05-23T11:50:49;22.97;65.34
77523;SHT31;66637;-29.628;-49.938;2023-05-23T11:53:22;23.14;65.53
77523;SHT31;66637;-29.628;-49.938;2023-05-23T11:56:00;23.28;64.60
77523;SHT31;66637;-29.628;-49.938;2023-05-23T11:58:37;23.50;64.64
77523;SHT31;66637;-29.628;-49.938;2023-05-23T12:01:10;23.62;63.70
77523;SHT31;66637;-29.628;-49.938;2023-05-23T12:03:48;23.88;63.66
77523;SHT31;66637;-29.628;-49.938;2023-05-23T12:06:23;24.02;62.00
77523;SHT31;66637;-29.628;-49.938;2023-05-23T12:08:54;24.13;62.50
77523;SHT31;66637;-29.628;-49.938;2023-05-23T12:11:31;24.29;62.48
77523;SHT31;66637;-29.628;-49.938;2023-05-23T12:14:03;24.52;62.03
77523;SHT31;66637;-29.628;-49.938;2023-05-23T12:16:36;24.69;61.06
77523;SHT31;66637;-29.628;-49.938;2023-05-23T12:19:08;24.73;59.86
77523;SHT31;66637;-29.628;-49.938;2023-05-23T12:21:48;24.98;63.43
77523;SHT31;66637;-29.628;-49.938;2023-05-23T12:24:21;25.12;60.50
77523;SHT31;66637;-29.628;-49.938;2023-05-23T12:26:58;25.18;59.70
77523;SHT31;66637;-29.628;-49.938;2023-05-23T12:29:31;25.34;59.57
77523;SHT31;66637;-29.628;-49.938;2023-05-23T12:32:07;25.43;58.18
77523;SHT31;66637;-29.628;-49.938;2023-05-23T12:34:41;25.59;57.85
77523;SHT31;66637;-29.628;-49.938;2023-05-23T12:37:14;25.69;55.75
77523;SHT31;66637;-29.628;-49.938;2023-05-23T12:39:47;25.78;56.62
77523;SHT31;66637;-29.628;-49.938;2023-05-23T12:42:24;25.88;55.48
77523;SHT31;66637;-29.628;-49.938;2023-05-23T12:44:58;25.97;56.70
77523;SHT31;66637;-29.628;-49.938;2023-05-23T12:47:32;26.05;55.56
77523;SHT31;66637;-29.628;-49.938;2023-05-23T12:50:05;26.02;56.77
77523;SHT31;66637;-29.628;-49.938;2023-05-23T12:52:44;26.26;56.04
77523;SHT31;66637;-29.628;-49.938;2023-05-23T12:55:16;26.30;56.97
77523;SHT31;66637;-29.628;-49.938;2023-05-23T12:57:47;26.40;57.24
77523;SHT31;66637;-29.628;-49.938;2023-05-23T13:00:20;26.61;55.34
77523;SHT31;66637;-29.628;-49.938;2023-05-23T13:02:54;26.80;55.38
77523;SHT31;66637;-29.628;-49.938;2023-05-23T13:05:27;27.05;55.96
77523;SHT31;66637;-29.628;-49.938;2023-05-23T13:07:59;27.11;54.18
77523;SHT31;66637;-29.628;-49.938;2023-05-23T13:10:36;27.25;53.22
77523;SHT31;66637;-29.628;-49.938;2023-05-23T13:13:12;27.29;52.95
77523;SHT31;66637;-29.628;-49.938;2023-05-23T13:15:45;27.11;55.49
77523;SHT31;66637;-29.628;-49.938;2023-05-23T13:18:18;26.39;58.01
77523;SHT31;66637;-29.628;-49.938;2023-05-23T13:20:50;25.61;59.55
77523;SHT31;66637;-29.628;-49.938;2023-05-23T13:23:21;25.83;60.86
77523;SHT31;66637;-29.628;-49.938;2023-05-23T13:25:55;25.78;60.17
77523;SHT31;66637;-29.628;-49.938;2023-05-23T13:28:28;25.73;60.12
77523;SHT31;66637;-29.628;-49.938;2023-05-23T13:30:59;25.22;62.28
77523;SHT31;66637;-29.628;-49.938;2023-05-23T13:33:31;25.03;62.22
77523;SHT31;66637;-29.628;-49.938;2023-05-23T13:36:02;24.84;64.20
77523;SHT31;66637;-29.628;-49.938;2023-05-23T13:38:34;24.98;64.13
77523;SHT31;66637;-29.628;-49.938;2023-05-23T13:41:06;24.90;64.93
77523;SHT31;66637;-29.628;-49.938;2023-05-23T13:43:41;25.04;65.59
77523;SHT31;66637;-29.628;-49.938;2023-05-23T13:46:15;24.95;63.96
77523;SHT31;66637;-29.628;-49.938;2023-05-23T13:48:51;25.07;63.70
77523;SHT31;66637;-29.628;-49.938;2023-05-23T13:51:22;25.32;63.22
77523;SHT31;66637;-29.628;-49.938;2023-05-23T13:53:53;25.12;63.19
77523;SHT31;66637;-29.628;-49.938;2023-05-23T13:56:24;25.11;64.16
77523;SHT31;66637;-29.628;-49.938;2023-05-23T13:58:56;25.81;63.47
77523;SHT31;66637;-29.628;-49.938;2023-05-23T14:01:28;26.09;61.94
77523;SHT31;66637;-29.628;-49.938;2023-05-23T14:04:02;26.10;61.14
77523;SHT31;66637;-29.628;-49.938;2023-05-23T14:06:34;26.20;61.03
77523;SHT31;66637;-29.628;-49.938;2023-05-23T14:09:06;26.40;60.51
77523;SHT31;66637;-29.628;-49.938;2023-05-23T14:11:38;26.54;60.33
77523;SHT31;66637;-29.628;-49.938;2023-05-23T14:14:13;26.63;59.90
77523;SHT31;66637;-29.628;-49.938;2023-05-23T14:16:50;26.32;60.83
77523;SHT31;66637;-29.628;-49.938;2023-05-23T14:19:21;26.37;61.90
77523;SHT31;66637;-29.628;-49.938;2023-05-23T14:21:52;26.16;60.77
77523;SHT31;66637;-29.628;-49.938;2023-05-23T14:24:24;26.17;61.70
77523;SHT31;66637;-29.628;-49.938;2023-05-23T14:26:56;25.96;63.09
77523;SHT31;66637;-29.628;-49.938;2023-05-23T14:29:27;25.97;63.05
77523;SHT31;66637;-29.628;-49.938;2023-05-23T14:31:59;25.99;63.56
77523;SHT31;66637;-29.628;-49.938;2023-05-23T14:34:32;25.83;63.99
77523;SHT31;66637;-29.628;-49.938;2023-05-23T14:37:03;25.79;64.63
77523;SHT31;66637;-29.628;-49.938;2023-05-23T14:39:34;25.90;64.24
77523;SHT31;66637;-29.628;-49.938;2023-05-23T14:42:09;25.71;63.76
77523;SHT31;66637;-29.628;-49.938;2023-05-23T14:44:41;25.58;62.44
77523;SHT31;66637;-29.628;-49.938;2023-05-23T14:47:11;25.45;63.77
77523;SHT31;66637;-29.628;-49.938;2023-05-23T14:49:43;25.45;64.39
77523;SHT31;66637;-29.628;-49.938;2023-05-23T14:52:15;25.48;63.83
77523;SHT31;66637;-29.628;-49.938;2023-05-23T14:54:48;25.46;64.80
77523;SHT31;66637;-29.628;-49.938;2023-05-23T14:57:19;25.43;65.14
77523;SHT31;66637;-29.628;-49.938;2023-05-23T14:59:50;25.35;65.62
77523;SHT31;66637;-29.628;-49.938;2023-05-23T15:02:20;25.41;64.84
77523;SHT31;66637;-29.628;-49.938;2023-05-23T15:04:51;25.49;64.89
77523;SHT31;66637;-29.628;-49.938;2023-05-23T15:07:22;25.48;64.91
77523;SHT31;66637;-29.628;-49.938;2023-05-23T15:09:54;25.31;66.86
77523;SHT31;66637;-29.628;-49.938;2023-05-23T15:12:25;25.28;66.80
77523;SHT31;66637;-29.628;-49.938;2023-05-23T15:14:56;25.28;67.12
77523;SHT31;66637;-29.628;-49.938;2023-05-23T15:17:33;25.32;65.97
77523;SHT31;66637;-29.628;-49.938;2023-05-23T15:20:06;25.27;64.71
77523;SHT31;66637;-29.628;-49.938;2023-05-23T15:22:42;25.28;65.31
77523;SHT31;66637;-29.628;-49.938;2023-05-23T15:25:13;25.24;64.96
77523;SHT31;66637;-29.628;-49.938;2023-05-23T15:27:57;25.38;64.02
77523;SHT31;66637;-29.628;-49.938;2023-05-23T15:30:29;25.30;64.44
77523;SHT31;66637;-29.628;-49.938;2023-05-23T15:33:02;25.37;63.80
77523;SHT31;66637;-29.628;-49.938;2023-05-23T15:35:34;25.61;65.94
77523;SHT31;66637;-29.628;-49.938;2023-05-23T15:38:05;25.75;64.74
77523;SHT31;66637;-29.628;-49.938;2023-05-23T15:40:37;25.76;64.36
77523;SHT31;66637;-29.628;-49.938;2023-05-23T15:43:09;25.86;64.88
77523;SHT31;66637;-29.628;-49.938;2023-05-23T15:45:39;25.89;64.92
77523;SHT31;66637;-29.628;-49.938;2023-05-23T15:48:11;26.00;66.10
77523;SHT31;66637;-29.628;-49.938;2023-05-23T15:50:42;26.06;65.11
77523;SHT31;66637;-29.628;-49.938;2023-05-23T15:53:14;26.17;64.97
77523;SHT31;66637;-29.628;-49.938;2023-05-23T15:55:47;26.19;65.78
77523;SHT31;66637;-29.628;-49.938;2023-05-23T15:58:17;26.03;65.90